Main page
METAR-TAF:

METAR-TAF

Airports :

Ağrı Airport

Ağrı, Turkey

latitude: 39-39-16N, longitude: 43-01-38E, elevation: 1665 m

Current weather observation

The report was made 5 hours and 6 minutes ago, at 15:50 UTC
Wind 6 kt from the East
Temperature 11°C
Humidity 82%
Pressure 1016 hPa
Visibility 10 km or more
Few clouds at a height of 2500 ft, Cumulonimbus.
Scattered clouds at a height of 3500 ft
Broken clouds at a height of 7000 ft
thunderstorm,

METAR: LTCO 191550Z 10006KT 9999 TS FEW025CB SCT035 BKN070 11/08 Q1016

Time: 23:56 (20:56 UTC)

Forecast

The report was made 4 hours and 16 minutes ago, at 16:40 UTC
Forecast valid from 19 at 18 UTC to 20 at 03 UTC
Wind 2 kt from variable directions
Visibility 10 km or more
Scattered clouds at a height of 3500 ft
Broken clouds at a height of 7000 ft
Becoming
from 19 at 19 UTC to 19 at 22 UTC
Visibility 10 km or more
no clouds below 1500 m and no cumulonimbus

TAF: LTCO 191640Z 1918/2003 VRB02KT 9999 SCT035 BKN070 BECMG 1919/1922 CAVOK

Weather observations and forecasts of more than 4000 airports (METAR and TAF reports).

The available stations are represented by yellow and red dots on the map.

Hover mouse over dot to see the name of the station.

Then click to see weather observations and forecasts.

To change the map : click on the green buttons with a black cross to zoom in, on the green button with a dash to zoom out, or on the green arrows for adjacent maps.


METAR-TAF: